Time;durP1;ratioP1;P1;durP2;ratioP2;P2;SDS_P1;SDS_P2;PMS_P1;PMS_P2;Temp;Humidity;BMP_temperature;BMP_pressure;BME280_temperature;BME280_humidity;BME280_pressure;Samples;Min_cycle;Max_cycle;Signal;HPM_P1;HPM_P2
2022/08/21 21:31:16;;;;;;;9.30;6.57;;;18.80;99.90;;;;;;5117297;27;20311;-82
2022/08/21 21:33:43;;;;;;;10.10;6.80;;;18.80;99.90;;;;;;5121167;28;20494;-81
2022/08/21 21:36:22;;;;;;;9.50;6.80;;;18.60;99.90;;;;;;5119506;28;20522;-81
2022/08/21 21:38:53;;;;;;;8.37;6.13;;;18.50;1.00;;;;;;5138106;22;20558;-76
2022/08/21 21:41:32;;;;;;;6.77;6.07;;;18.40;1.00;;;;;;5118441;28;20420;-78
2022/08/21 21:44:24;;;;;;;8.90;7.20;;;18.40;1.00;;;;;;5118379;28;20510;-78
2022/08/21 21:46:59;;;;;;;7.93;7.20;;;18.00;1.00;;;;;;5114025;28;20453;-77
2022/08/21 21:49:35;;;;;;;6.80;6.10;;;18.40;1.00;;;;;;5110356;28;20456;-74
2022/08/21 21:52:14;;;;;;;10.37;7.27;;;18.20;1.00;;;;;;5110024;28;20431;-75
2022/08/21 21:55:00;;;;;;;9.63;8.00;;;18.30;1.00;;;;;;5109643;28;20431;-75
2022/08/21 21:57:57;;;;;;;11.00;7.40;;;18.70;1.00;;;;;;5109920;28;20467;-74
2022/08/21 22:00:26;;;;;;;8.57;7.00;;;18.40;1.00;;;;;;5109976;28;20540;-75
2022/08/21 22:03:04;;;;;;;7.47;6.77;;;18.40;1.00;;;;;;5109661;28;20443;-74
2022/08/21 22:05:45;;;;;;;7.70;6.57;;;18.40;1.00;;;;;;5109894;28;20805;-74
2022/08/21 22:08:21;;;;;;;8.27;6.67;;;18.30;1.00;;;;;;5109779;28;20564;-73
2022/08/21 22:10:52;;;;;;;7.03;6.43;;;18.20;1.00;;;;;;5109849;28;20442;-74
2022/08/21 22:13:25;;;;;;;9.60;7.17;;;18.00;1.00;;;;;;5109729;28;20431;-74
2022/08/21 22:15:53;;;;;;;9.03;7.60;;;17.90;1.00;;;;;;5109879;28;20492;-75
2022/08/21 22:18:25;;;;;;;10.33;7.30;;;17.90;1.00;;;;;;5109336;28;21009;-74
2022/08/21 22:20:56;;;;;;;7.43;6.77;;;18.00;1.00;;;;;;5109463;28;20494;-73
2022/08/21 22:23:26;;;;;;;7.97;7.27;;;18.00;1.00;;;;;;5109441;28;20431;-74
2022/08/21 22:25:58;;;;;;;8.87;7.67;;;18.00;1.00;;;;;;5109419;28;20446;-73
2022/08/21 22:28:27;;;;;;;8.80;7.90;;;18.00;1.00;;;;;;5109299;28;20467;-74
2022/08/21 22:30:56;;;;;;;7.93;6.93;;;17.90;1.00;;;;;;5103025;28;20440;-74
2022/08/21 22:33:26;;;;;;;9.70;7.33;;;17.90;1.00;;;;;;5095621;28;20440;-74
2022/08/21 22:35:55;;;;;;;8.10;7.13;;;17.90;12.80;;;;;;5095586;28;20443;-74
2022/08/21 22:38:35;;;;;;;11.30;7.77;;;17.90;1.00;;;;;;5095254;28;20480;-74
2022/08/21 22:41:15;;;;;;;7.90;7.10;;;17.80;1.00;;;;;;5095532;28;20467;-75
2022/08/21 22:43:56;;;;;;;7.67;6.97;;;17.80;1.00;;;;;;5095507;28;20896;-75
2022/08/21 22:46:28;;;;;;;8.50;7.60;;;17.80;12.70;;;;;;5095512;28;20427;-74
2022/08/21 22:49:04;;;;;;;7.60;6.80;;;17.80;33.40;;;;;;5094985;28;20475;-74
2022/08/21 22:51:36;;;;;;;8.67;7.77;;;17.90;33.60;;;;;;5095222;28;20439;-75
2022/08/21 22:54:05;;;;;;;7.30;6.53;;;17.70;4.70;;;;;;5095300;28;20475;-74
2022/08/21 22:56:36;;;;;;;11.03;7.10;;;17.70;36.50;;;;;;5095423;28;20452;-74
2022/08/21 22:59:06;;;;;;;8.07;7.37;;;17.70;3.10;;;;;;5095184;28;20463;-74
2022/08/21 23:01:38;;;;;;;8.10;6.63;;;17.80;33.20;;;;;;5095267;28;20439;-74
2022/08/21 23:04:21;;;;;;;11.00;7.20;;;17.80;16.80;;;;;;5095268;28;20468;-74
2022/08/21 23:06:51;;;;;;;7.73;6.90;;;17.70;11.80;;;;;;5095184;28;20435;-74
2022/08/21 23:09:21;;;;;;;7.37;6.67;;;17.80;18.00;;;;;;5095118;28;20873;-74
2022/08/21 23:11:49;;;;;;;7.73;6.47;;;17.70;41.00;;;;;;5095182;28;20428;-74
2022/08/21 23:14:15;;;;;;;10.43;5.97;;;17.70;29.90;;;;;;5094886;28;20448;-74
2022/08/21 23:16:53;;;;;;;9.77;7.00;;;17.80;1.00;;;;;;5094818;28;20453;-74
2022/08/21 23:19:32;;;;;;;6.07;5.50;;;17.70;1.00;;;;;;5094838;28;20541;-74
2022/08/21 23:22:20;;;;;;;7.90;6.40;;;17.70;1.00;;;;;;5095008;28;20814;-74
2022/08/21 23:25:00;;;;;;;6.60;6.10;;;17.70;1.00;;;;;;5094545;28;20497;-74
2022/08/21 23:27:38;;;;;;;6.97;6.37;;;17.70;1.00;;;;;;5094744;28;20471;-74
2022/08/21 23:30:09;;;;;;;8.53;5.37;;;17.90;1.00;;;;;;5095243;28;20830;-74
2022/08/21 23:33:00;;;;;;;5.87;5.27;;;17.90;1.00;;;;;;5094491;28;20444;-73
2022/08/21 23:38:20;;;;;;;6.57;5.87;;;18.20;1.00;;;;;;5093855;28;20989;-73
2022/08/21 23:40:51;;;;;;;5.10;4.70;;;18.00;1.00;;;;;;5094132;28;20946;-74
2022/08/21 23:43:37;;;;;;;8.07;5.50;;;18.10;1.00;;;;;;5093450;28;20444;-73
2022/08/21 23:46:27;;;;;;;9.50;5.50;;;18.00;99.90;;;;;;5094470;28;20432;-73
2022/08/21 23:49:02;;;;;;;5.13;4.50;;;18.10;99.90;;;;;;5094870;28;20840;-74
2022/08/21 23:51:37;;;;;;;6.90;4.70;;;18.10;99.90;;;;;;5095394;28;20439;-74
2022/08/21 23:54:17;;;;;;;5.60;5.10;;;18.10;1.00;;;;;;5095482;28;20519;-74
2022/08/21 23:56:56;;;;;;;4.40;4.07;;;18.00;99.90;;;;;;5094814;28;20432;-73
2022/08/21 23:59:38;;;;;;;6.10;4.70;;;18.00;99.90;;;;;;5094059;28;20439;-73
